createdAt,value
2019-01-16T05:03:48.926Z,100362.13
2019-01-16T05:07:16.741Z,100354.8
2019-01-16T05:10:44.659Z,100350.71
2019-01-16T05:14:13.516Z,100351.5
2019-01-16T05:17:41.411Z,100360.96
2019-01-16T05:21:09.296Z,100352
2019-01-16T05:24:37.187Z,100348.49
2019-01-16T05:28:05.102Z,100345.29
2019-01-16T05:31:35.639Z,100347.48
2019-01-16T05:35:02.889Z,100343.46
2019-01-16T05:38:30.754Z,100347.28
2019-01-16T05:41:58.674Z,100345.93
2019-01-16T05:45:26.951Z,100348.41
2019-01-16T05:48:55.305Z,100345.68
2019-01-16T05:52:23.198Z,100345.39
2019-01-16T05:55:51.077Z,100344.79
2019-01-16T05:59:18.965Z,100335.03
2019-01-16T06:02:46.860Z,100336.87
2019-01-16T06:06:14.753Z,100332.19
2019-01-16T06:09:42.618Z,100327.17
2019-01-16T06:13:10.518Z,100323.48
2019-01-16T06:16:38.412Z,100320.73
2019-01-16T06:20:06.283Z,100321.85
2019-01-16T06:23:35.162Z,100324.42
2019-01-16T06:27:03.049Z,100329.89
2019-01-16T06:30:30.917Z,100319.47
2019-01-16T06:33:58.799Z,100329.1
2019-01-16T06:37:26.782Z,100323.8
2019-01-16T06:40:54.658Z,100324.45
2019-01-16T06:44:22.539Z,100328.1
2019-01-16T06:47:50.433Z,100322.2
2019-01-16T06:51:18.299Z,100320.58
2019-01-16T06:54:46.187Z,100327.08
2019-01-16T06:58:14.074Z,100323.59
2019-01-16T07:01:41.943Z,100329.17
2019-01-16T07:05:09.834Z,100328.53
2019-01-16T07:08:37.739Z,100332.87
2019-01-16T07:12:05.608Z,100326.5
2019-01-16T07:15:33.504Z,100330.14
2019-01-16T07:19:01.398Z,100331.09
2019-01-16T07:22:29.272Z,100335.7
2019-01-16T07:25:57.161Z,100337.18
2019-01-16T07:29:25.057Z,100353.96
2019-01-16T07:32:52.928Z,100354.25
2019-01-16T07:36:20.824Z,100348.4
2019-01-16T07:39:48.716Z,100350.27
2019-01-16T07:43:16.594Z,100358.65
2019-01-16T07:46:44.490Z,100355.6
2019-01-16T07:50:17.297Z,100355.05
2019-01-16T07:53:44.210Z,100350.51
2019-01-16T07:57:12.104Z,100355.29
2019-01-16T08:00:39.980Z,100356.28
2019-01-16T08:04:07.855Z,100360.27
2019-01-16T08:07:35.749Z,100360.32
2019-01-16T08:11:03.644Z,100357.27
2019-01-16T08:14:31.519Z,100353.56
2019-01-16T08:17:59.417Z,100356.08
2019-01-16T08:21:28.305Z,100351.25
2019-01-16T08:24:56.185Z,100347.85
2019-01-16T08:28:24.072Z,100352.93
2019-01-16T08:31:51.975Z,100339.21
2019-01-16T08:35:19.847Z,100341.35
2019-01-16T08:38:47.735Z,100340.06
2019-01-16T08:42:15.613Z,100343.59
2019-01-16T08:45:43.510Z,100341.77
2019-01-16T08:49:11.415Z,100338.12
2019-01-16T08:52:39.290Z,100340.38
2019-01-16T08:56:07.185Z,100338.29
2019-01-16T08:59:35.079Z,100336.35
2019-01-16T09:03:02.950Z,100335.86
2019-01-16T09:06:31.833Z,100330.01
2019-01-16T09:09:59.721Z,100336.64
2019-01-16T09:13:27.604Z,100331.95
2019-01-16T09:16:55.515Z,100327.82
2019-01-16T09:20:23.408Z,100324.84
2019-01-16T09:23:51.283Z,100327.79
2019-01-16T09:27:19.175Z,100323.7
2019-01-16T09:30:47.067Z,100323.07
2019-01-16T09:34:14.938Z,100324.25
2019-01-16T09:37:42.838Z,100324.71
2019-01-16T09:41:10.724Z,100315.23
2019-01-16T09:44:38.607Z,100308.82
2019-01-16T09:48:06.500Z,100317.92
2019-01-16T09:51:34.393Z,100312.46
2019-01-16T09:55:02.273Z,100312.43
2019-01-16T09:58:30.162Z,100306.64
2019-01-16T10:01:58.049Z,100307.18
2019-01-16T10:05:25.922Z,100308.6
2019-01-16T10:08:53.813Z,100301.03
2019-01-16T10:12:21.700Z,100291.14
2019-01-16T10:15:49.592Z,100283.57
2019-01-16T10:19:17.470Z,100290.6
2019-01-16T10:22:45.366Z,100276.07
2019-01-16T10:26:13.257Z,100280
2019-01-16T10:29:42.135Z,100264.21
2019-01-16T10:33:10.032Z,100266.96
2019-01-16T10:36:37.923Z,100268.05
2019-01-16T10:40:05.799Z,100268.71
2019-01-16T10:43:33.688Z,100257.71
2019-01-16T10:47:01.574Z,100251.29
2019-01-16T10:50:30.434Z,100250.32
2019-01-16T10:53:59.316Z,100238.77
2019-01-16T10:57:27.214Z,100239.21
2019-01-16T11:00:55.087Z,100235.98
2019-01-16T11:04:23.964Z,100226.65
2019-01-16T11:07:51.855Z,100231.96
2019-01-16T11:11:19.732Z,100225.09
2019-01-16T11:14:48.605Z,100213.34
2019-01-16T11:18:16.489Z,100223.48
2019-01-16T11:21:44.366Z,100221.09
2019-01-16T11:25:12.278Z,100213.89
2019-01-16T11:28:40.170Z,100207.04
2019-01-16T11:32:08.057Z,100204.74
2019-01-16T11:35:35.927Z,100209.17
2019-01-16T11:39:03.819Z,100194.2
2019-01-16T11:42:31.725Z,100206.56
2019-01-16T11:45:59.583Z,100186.7
2019-01-16T11:49:27.478Z,100180.61
2019-01-16T11:52:55.360Z,100180.9
2019-01-16T11:56:23.225Z,100182.89
2019-01-16T11:59:52.108Z,100173.48
2019-01-16T12:03:20.107Z,100173.86
2019-01-16T12:06:47.973Z,100174.93
2019-01-16T12:10:15.864Z,100176.17
2019-01-16T12:13:43.856Z,100169.28
2019-01-16T12:17:11.722Z,100178.46
2019-01-16T12:20:39.614Z,100165.7
2019-01-16T12:24:07.497Z,100162.57
2019-01-16T12:27:35.367Z,100166
2019-01-16T12:31:03.255Z,100162.61
2019-01-16T12:34:31.146Z,100170.56
2019-01-16T12:38:00.012Z,100150.65
2019-01-16T12:41:28.903Z,100137.82
2019-01-16T12:44:56.807Z,100149.5
2019-01-16T12:48:24.687Z,100141.56
2019-01-16T12:51:52.583Z,100133.44
2019-01-16T12:55:20.478Z,100133.85
2019-01-16T12:58:48.390Z,100122.96
2019-01-16T13:02:16.260Z,100122.41
2019-01-16T13:05:44.160Z,100118.94
2019-01-16T13:09:12.081Z,100107.92
2019-01-16T13:12:39.959Z,100102.76
2019-01-16T13:16:07.845Z,100101.91
2019-01-16T13:19:35.754Z,100102.67
2019-01-16T13:23:03.615Z,100108.79
2019-01-16T13:26:31.505Z,100104.04
2019-01-16T13:30:00.400Z,100100.17
2019-01-16T13:33:28.271Z,100099.95
2019-01-16T13:36:56.162Z,100091.65
2019-01-16T13:40:24.999Z,100091.92
2019-01-16T13:43:52.881Z,100084.93
2019-01-16T13:47:20.776Z,100082.78
2019-01-16T13:50:49.694Z,100085.54
2019-01-16T13:54:17.594Z,100075.7
2019-01-16T13:57:45.490Z,100076.84
2019-01-16T14:01:14.353Z,100066.04
2019-01-16T14:04:42.260Z,100066.35
2019-01-16T14:08:10.157Z,100066.64
2019-01-16T14:11:38.030Z,100060.59
2019-01-16T14:15:06.909Z,100048.75
2019-01-16T14:18:34.812Z,100052.92
2019-01-16T14:22:02.804Z,100048.34
2019-01-16T14:25:30.850Z,100054.27
2019-01-16T14:28:58.742Z,100047.79
2019-01-16T14:32:26.609Z,100046.15
2019-01-16T14:35:54.490Z,100042.64
2019-01-16T14:39:22.383Z,100042.39
2019-01-16T14:42:50.268Z,100038.19
2019-01-16T14:46:18.147Z,100041.19
2019-01-16T14:49:46.030Z,100034.03
2019-01-16T14:53:14.889Z,100036.74
2019-01-16T14:56:42.772Z,100031.54
2019-01-16T15:00:10.651Z,100030.21
2019-01-16T15:03:38.538Z,100029.71
2019-01-16T15:07:06.409Z,100025.37
2019-01-16T15:10:34.306Z,100018.91
2019-01-16T15:14:02.192Z,100022.72
2019-01-16T15:17:30.055Z,100011.21
2019-01-16T15:20:57.937Z,100015.25
2019-01-16T15:24:25.890Z,100011.01
2019-01-16T15:27:53.762Z,100004.28
2019-01-16T15:31:22.729Z,99997.234
2019-01-16T15:34:50.615Z,99996.375
2019-01-16T15:38:18.501Z,99994.562
2019-01-16T15:41:46.366Z,99995.328
2019-01-16T15:45:14.248Z,99992.375
2019-01-16T15:48:42.145Z,99997.359
2019-01-16T15:52:13.034Z,99988.75
2019-01-16T15:55:41.860Z,99985.695
2019-01-16T15:59:09.749Z,99984.578
2019-01-16T16:02:37.619Z,99975
2019-01-16T16:06:07.485Z,99978.515
2019-01-16T16:09:35.374Z,99978.062
2019-01-16T16:13:03.243Z,99970.257
2019-01-16T16:16:31.128Z,99964.406
2019-01-16T16:19:59.007Z,99970.187
2019-01-16T16:23:26.876Z,99959.5
2019-01-16T16:26:54.764Z,99958.914
2019-01-16T16:30:22.652Z,99952.367
2019-01-16T16:33:50.524Z,99951.421
2019-01-16T16:37:18.405Z,99945.859
2019-01-16T16:40:46.305Z,99963.601
2019-01-16T16:44:14.172Z,99957.109
2019-01-16T16:47:42.063Z,99943.281
2019-01-16T16:51:09.950Z,99936.203
2019-01-16T16:54:37.838Z,99937.171
2019-01-16T16:58:05.709Z,99947.023
2019-01-16T17:01:33.599Z,99929.078
2019-01-16T17:05:01.485Z,99927.843
2019-01-16T17:08:29.356Z,99926.89
2019-01-16T17:11:57.264Z,99947.203
2019-01-16T17:15:25.152Z,99912.968
2019-01-16T17:18:54.015Z,99922.25
2019-01-16T17:22:21.910Z,99910.5
2019-01-16T17:25:50.806Z,99907
2019-01-16T17:29:18.686Z,99914.359
2019-01-16T17:32:46.627Z,99903.765
2019-01-16T17:36:16.439Z,99893.546
2019-01-16T17:39:44.310Z,99891.281
2019-01-16T17:43:12.198Z,99884.39
2019-01-16T17:46:40.085Z,99892.593
2019-01-16T17:50:07.960Z,99920.71
2019-01-16T17:53:35.852Z,99896.281
2019-01-16T17:57:03.735Z,99892.273
2019-01-16T18:00:31.608Z,99883.64
2019-01-16T18:03:59.507Z,99871.39
2019-01-16T18:07:27.391Z,99875.406
2019-01-16T18:10:55.263Z,99867.414
2019-01-16T18:14:24.147Z,99862.453
2019-01-16T18:17:53.028Z,99858.046
2019-01-16T18:21:20.901Z,99860.109
2019-01-16T18:24:48.785Z,99850.64
2019-01-16T18:28:18.653Z,99856.335
2019-01-16T18:31:46.551Z,99838.109
2019-01-16T18:35:14.437Z,99843.421
2019-01-16T18:38:42.349Z,99852.546
2019-01-16T18:42:10.245Z,99842.578
2019-01-16T18:45:38.122Z,99839.843
2019-01-16T18:49:07.009Z,99832.14
2019-01-16T18:52:34.935Z,99828.757
2019-01-16T18:56:02.811Z,99838.414
2019-01-16T18:59:30.708Z,99823.734
2019-01-16T19:02:58.590Z,99817.843
2019-01-16T19:06:26.470Z,99834.312
2019-01-16T19:09:54.388Z,99814.359
2019-01-16T19:13:22.290Z,99830.421
2019-01-16T19:16:50.162Z,99817.953
2019-01-16T19:20:18.059Z,99820.89
2019-01-16T19:23:45.975Z,99804.054
2019-01-16T19:27:13.867Z,99810.843
2019-01-16T19:30:41.767Z,99797.453
2019-01-16T19:34:09.659Z,99817.531
2019-01-16T19:37:37.531Z,99792.609
2019-01-16T19:41:05.431Z,99790.546
2019-01-16T19:44:34.322Z,99790.109
2019-01-16T19:48:02.242Z,99813.265
2019-01-16T19:51:30.202Z,99792.125
2019-01-16T19:55:00.176Z,99777.992
2019-01-16T19:58:28.117Z,99795.085
2019-01-16T20:01:56.055Z,99779.578
2019-01-16T20:05:23.970Z,99765.921
2019-01-16T20:08:52.843Z,99762.546
2019-01-16T20:12:20.789Z,99782.64
2019-01-16T20:15:48.751Z,99761.843
2019-01-16T20:19:16.681Z,99769.765
2019-01-16T20:22:44.596Z,99756.109
2019-01-16T20:26:12.535Z,99758.554
2019-01-16T20:29:40.510Z,99750.781
2019-01-16T20:33:08.479Z,99742.968
2019-01-16T20:36:36.428Z,99755.5
2019-01-16T20:40:04.345Z,99738.476
2019-01-16T20:43:32.315Z,99746.906
2019-01-16T20:47:00.209Z,99737.328
2019-01-16T20:50:28.106Z,99733.382
2019-01-16T20:53:55.981Z,99728.984
2019-01-16T20:57:23.878Z,99732.921
2019-01-16T21:00:51.772Z,99720.875
2019-01-16T21:04:19.681Z,99714.046
2019-01-16T21:07:47.620Z,99710.281
2019-01-16T21:11:15.705Z,99713.343
2019-01-16T21:14:43.747Z,99713.937
2019-01-16T21:18:11.612Z,99705.367
2019-01-16T21:21:39.509Z,99705.375
2019-01-16T21:25:07.542Z,99693.781
2019-01-16T21:28:38.385Z,99686.875
2019-01-16T21:32:06.281Z,99686.835
2019-01-16T21:35:34.153Z,99670.429
2019-01-16T21:39:03.037Z,99679.343
2019-01-16T21:42:30.930Z,99664.085
2019-01-16T21:45:58.822Z,99649.546
2019-01-16T21:49:26.705Z,99656.453
2019-01-16T21:52:54.595Z,99638.039
2019-01-16T21:56:22.485Z,99622.406
2019-01-16T21:59:50.385Z,99618.328
2019-01-16T22:03:18.253Z,99629.531
2019-01-16T22:06:46.141Z,99630.859
2019-01-16T22:10:14.030Z,99607.398
2019-01-16T22:13:41.904Z,99612.125
2019-01-16T22:17:09.799Z,99607.218
2019-01-16T22:20:37.681Z,99599.265
2019-01-16T22:24:05.553Z,99586.289
2019-01-16T22:27:33.458Z,99586.148
2019-01-16T22:31:01.348Z,99573.851
2019-01-16T22:34:29.221Z,99571.437
2019-01-16T22:37:57.107Z,99560.32
2019-01-16T22:41:25.013Z,99563.484
2019-01-16T22:44:52.883Z,99559.226
2019-01-16T22:48:21.761Z,99543.218
2019-01-16T22:51:49.654Z,99571.273
2019-01-16T22:55:17.640Z,99548.023
2019-01-16T22:58:45.568Z,99541.14
